createdAt,value
2022-12-15T00:00:23.679Z,96988.69
2022-12-15T00:05:44.231Z,96977.84
2022-12-15T00:11:12.839Z,96974.19
2022-12-15T00:16:33.429Z,96979.34
2022-12-15T00:21:53.747Z,96981.06
2022-12-15T00:27:14.084Z,96979.47
2022-12-15T00:32:34.380Z,96969.31
2022-12-15T00:37:54.720Z,96966.28
2022-12-15T00:42:56.738Z,96984.34
2022-12-15T00:47:58.581Z,96990.84
2022-12-15T00:53:18.997Z,96990.44
2022-12-15T00:58:39.456Z,96995.91
2022-12-15T01:03:59.832Z,96993.69
2022-12-15T01:09:21.387Z,96999.16
2022-12-15T01:14:42.204Z,97012.13
2022-12-15T01:20:02.345Z,97022.47
2022-12-15T01:25:06.323Z,97032.78
2022-12-15T01:30:09.716Z,97027.94
2022-12-15T01:35:12.071Z,97033.19
2022-12-15T01:40:36.193Z,97037.66
2022-12-15T01:45:48.922Z,97048.69
2022-12-15T01:51:13.925Z,97065.59
2022-12-15T01:56:17.924Z,97064.88
2022-12-15T02:01:19.950Z,97065.78
2022-12-15T02:06:22.653Z,97068.44
2022-12-15T02:11:30.366Z,97077.13
2022-12-15T02:16:58.307Z,97089.88
2022-12-15T02:22:18.294Z,97089.97
2022-12-15T02:27:44.423Z,97083.19
2022-12-15T02:33:21.712Z,97085.63
2022-12-15T02:38:37.182Z,97086.53
2022-12-15T02:43:39.713Z,97104.47
2022-12-15T02:49:08.040Z,97109.72
2022-12-15T02:54:31.733Z,97117.22
2022-12-15T02:59:33.406Z,97119.66
2022-12-15T03:04:35.463Z,97119.66
2022-12-15T03:09:37.303Z,97135.44
2022-12-15T03:14:39.278Z,97127.56
2022-12-15T03:19:41.293Z,97124.53
2022-12-15T03:24:43.557Z,97150.41
2022-12-15T03:29:45.561Z,97153.78
2022-12-15T03:34:47.590Z,97156.34
2022-12-15T03:39:49.768Z,97157.38
2022-12-15T03:44:51.625Z,97155.84
2022-12-15T03:49:53.333Z,97156.16
2022-12-15T03:54:55.132Z,97158.38
2022-12-15T03:59:57.106Z,97159.72
2022-12-15T04:04:59.162Z,97167.91
2022-12-15T04:10:00.998Z,97182.22
2022-12-15T04:15:02.882Z,97186.28
2022-12-15T04:20:11.831Z,97204.75
2022-12-15T04:25:36.046Z,97198.84
2022-12-15T04:31:01.162Z,97218.44
2022-12-15T04:36:30.775Z,97221.38
2022-12-15T04:41:54.727Z,97221.47
2022-12-15T04:47:15.237Z,97233.72
2022-12-15T04:52:38.449Z,97246.09
2022-12-15T04:57:59.006Z,97250.66
2022-12-15T05:03:26.634Z,97246.47
2022-12-15T05:08:47.208Z,97260.16
2022-12-15T05:14:10.909Z,97255.00
2022-12-15T05:19:31.119Z,97268.47
2022-12-15T05:24:51.996Z,97267.66
2022-12-15T05:30:12.455Z,97281.34
2022-12-15T05:35:14.556Z,97283.16
2022-12-15T05:40:22.363Z,97299.38
2022-12-15T05:45:24.328Z,97301.38
2022-12-15T05:50:26.336Z,97305.84
2022-12-15T05:55:28.333Z,97319.50
2022-12-15T06:00:30.364Z,97330.03
2022-12-15T06:05:32.264Z,97312.47
2022-12-15T06:10:34.068Z,97326.25
2022-12-15T06:15:39.164Z,97344.16
2022-12-15T06:20:41.058Z,97340.28
2022-12-15T06:25:42.898Z,97343.91
2022-12-15T06:30:44.723Z,97348.88
2022-12-15T06:35:46.569Z,97367.41
2022-12-15T06:41:01.902Z,97369.78
2022-12-15T06:46:04.586Z,97373.13
2022-12-15T06:51:13.324Z,97382.16
2022-12-15T06:56:23.204Z,97381.97
2022-12-15T07:01:28.279Z,97384.22
2022-12-15T07:06:37.706Z,97385.22
2022-12-15T07:11:40.725Z,97396.16
2022-12-15T07:16:42.746Z,97406.31
2022-12-15T07:21:45.175Z,97413.91
2022-12-15T07:26:49.081Z,97421.59
2022-12-15T07:31:51.140Z,97427.47
2022-12-15T07:36:53.216Z,97432.53
2022-12-15T07:41:55.045Z,97444.31
2022-12-15T07:46:56.997Z,97449.28
2022-12-15T07:51:58.982Z,97450.81
2022-12-15T07:57:02.766Z,97451.44
2022-12-15T08:02:05.205Z,97467.91
2022-12-15T08:07:09.183Z,97470.09
2022-12-15T08:12:10.940Z,97469.09
2022-12-15T08:17:13.309Z,97477.13
2022-12-15T08:22:15.748Z,97470.06
2022-12-15T08:27:17.620Z,97473.03
2022-12-15T08:32:19.562Z,97484.44
2022-12-15T08:37:21.449Z,97483.16
2022-12-15T08:42:48.439Z,97489.38
2022-12-15T08:47:50.264Z,97497.13
2022-12-15T08:53:21.510Z,97492.66
2022-12-15T08:58:14.548Z,97491.78
2022-12-15T09:03:16.437Z,97489.06
2022-12-15T09:08:18.602Z,97495.38
2022-12-15T09:13:21.016Z,97504.25
2022-12-15T09:18:22.936Z,97496.28
2022-12-15T09:23:25.095Z,97500.66
2022-12-15T09:28:28.190Z,97499.03
2022-12-15T09:33:30.593Z,97512.44
2022-12-15T09:38:40.553Z,97505.41
2022-12-15T09:44:05.428Z,97511.72
2022-12-15T09:49:27.885Z,97507.13
2022-12-15T09:54:34.081Z,97499.59
2022-12-15T09:59:44.563Z,97516.38
2022-12-15T10:04:55.793Z,97513.63
2022-12-15T10:09:58.248Z,97518.09
2022-12-15T10:15:23.186Z,97524.38
2022-12-15T10:20:32.335Z,97529.56
2022-12-15T10:25:34.214Z,97522.88
2022-12-15T10:30:42.778Z,97530.13
2022-12-15T10:35:44.861Z,97539.69
2022-12-15T10:40:58.465Z,97547.00
2022-12-15T10:46:19.020Z,97548.19
2022-12-15T10:51:37.277Z,97547.16
2022-12-15T10:56:57.456Z,97549.38
2022-12-15T11:02:24.474Z,97540.59
2022-12-15T11:07:39.206Z,97541.19
2022-12-15T11:12:58.335Z,97541.78
2022-12-15T11:18:22.159Z,97537.28
2022-12-15T11:23:50.340Z,97539.88
2022-12-15T11:28:58.935Z,97553.34
2022-12-15T11:34:00.945Z,97552.56
2022-12-15T11:39:16.419Z,97555.97
2022-12-15T11:44:28.078Z,97566.06
2022-12-15T11:50:01.838Z,97574.22
2022-12-15T11:55:29.548Z,97559.38
2022-12-15T12:00:42.603Z,97556.72
2022-12-15T12:05:59.700Z,97559.16
2022-12-15T12:11:29.134Z,97546.16
2022-12-15T12:16:49.250Z,97543.53
2022-12-15T12:21:59.178Z,97540.28
2022-12-15T12:27:09.018Z,97541.19
2022-12-15T12:32:40.609Z,97533.56
2022-12-15T12:37:51.551Z,97535.91
2022-12-15T12:42:54.888Z,97538.13
2022-12-15T12:48:03.360Z,97536.19
2022-12-15T12:53:05.375Z,97532.72
2022-12-15T12:58:34.324Z,97539.22
2022-12-15T13:03:39.127Z,97545.56
2022-12-15T13:08:52.864Z,97531.53
2022-12-15T13:13:56.109Z,97534.47
2022-12-15T13:19:04.795Z,97540.69
2022-12-15T13:24:30.858Z,97547.63
2022-12-15T13:29:34.253Z,97540.28
2022-12-15T13:34:40.880Z,97539.69
2022-12-15T13:39:55.629Z,97540.91
2022-12-15T13:45:13.834Z,97553.81
2022-12-15T13:50:29.983Z,97553.94
2022-12-15T13:55:37.322Z,97563.28
2022-12-15T14:00:48.603Z,97559.22
2022-12-15T14:05:55.552Z,97572.13
2022-12-15T14:11:22.537Z,97567.44
2022-12-15T14:16:27.485Z,97578.84
2022-12-15T14:21:30.494Z,97572.53
2022-12-15T14:26:35.396Z,97563.06
2022-12-15T14:31:42.853Z,97562.84
2022-12-15T14:36:46.242Z,97551.63
2022-12-15T14:41:54.630Z,97569.09
2022-12-15T14:46:57.180Z,97586.66
2022-12-15T14:52:03.228Z,97578.69
2022-12-15T14:57:15.880Z,97574.09
2022-12-15T15:02:23.087Z,97565.44
2022-12-15T15:07:26.834Z,97559.22
2022-12-15T15:12:44.963Z,97555.41
2022-12-15T15:17:51.174Z,97562.69
2022-12-15T15:23:08.825Z,97552.19
2022-12-15T15:28:21.879Z,97565.34
2022-12-15T15:33:25.336Z,97559.84
2022-12-15T15:38:36.207Z,97562.75
2022-12-15T15:43:38.424Z,97564.03
2022-12-15T15:48:50.429Z,97566.03
2022-12-15T15:53:58.128Z,97564.38
2022-12-15T15:59:09.963Z,97557.69
2022-12-15T16:04:14.905Z,97572.91
2022-12-15T16:09:17.306Z,97573.25
2022-12-15T16:14:19.247Z,97576.88
2022-12-15T16:19:21.263Z,97574.53
2022-12-15T16:24:23.134Z,97579.78
2022-12-15T16:29:33.976Z,97599.34
2022-12-15T16:34:36.635Z,97590.38
2022-12-15T16:39:49.399Z,97588.75
2022-12-15T16:44:51.394Z,97602.41
2022-12-15T16:49:53.347Z,97610.19
2022-12-15T16:54:57.147Z,97607.94
2022-12-15T16:59:59.045Z,97604.66
2022-12-15T17:05:00.801Z,97604.75
2022-12-15T17:10:03.583Z,97607.47
2022-12-15T17:15:16.878Z,97611.81
2022-12-15T17:20:30.508Z,97607.81
2022-12-15T17:31:06.736Z,97605.72
2022-12-15T17:36:17.667Z,97594.13
2022-12-15T17:47:58.146Z,97600.34
2022-12-15T17:53:03.364Z,97599.09
2022-12-15T17:58:35.735Z,97599.50
2022-12-15T18:03:40.810Z,97584.03
2022-12-15T18:08:45.764Z,97574.88
2022-12-15T18:13:52.408Z,97567.38
2022-12-15T18:18:56.737Z,97557.50
2022-12-15T18:24:00.377Z,97568.09
2022-12-15T18:29:15.316Z,97581.22
2022-12-15T18:34:22.939Z,97585.03
2022-12-15T18:39:27.190Z,97597.34
2022-12-15T18:44:32.222Z,97591.28
2022-12-15T18:49:37.484Z,97586.75
2022-12-15T18:54:45.619Z,97584.19
2022-12-15T18:59:47.444Z,97585.00
2022-12-15T19:04:49.495Z,97581.38
2022-12-15T19:09:51.534Z,97581.38
2022-12-15T19:14:55.165Z,97577.41
2022-12-15T19:20:17.564Z,97582.56
2022-12-15T19:25:25.834Z,97581.47
2022-12-15T19:30:30.585Z,97572.88
2022-12-15T19:35:33.913Z,97574.31
2022-12-15T19:40:37.795Z,97579.91
2022-12-15T19:45:39.622Z,97572.94
2022-12-15T19:50:42.616Z,97563.97
2022-12-15T19:55:44.596Z,97572.69
2022-12-15T20:00:46.497Z,97562.53
2022-12-15T20:05:50.978Z,97558.91
2022-12-15T20:10:54.070Z,97558.53
2022-12-15T20:15:56.291Z,97549.81
2022-12-15T20:20:59.464Z,97548.91
2022-12-15T20:26:01.375Z,97557.97
2022-12-15T20:31:03.647Z,97551.25
2022-12-15T20:36:13.311Z,97543.59
2022-12-15T20:41:25.134Z,97529.03
2022-12-15T20:46:36.071Z,97525.22
2022-12-15T20:51:38.224Z,97523.69
2022-12-15T20:56:40.128Z,97508.75
2022-12-15T21:01:43.325Z,97505.50
2022-12-15T21:06:47.606Z,97500.25
2022-12-15T21:11:55.187Z,97504.94
2022-12-15T21:16:58.149Z,97512.16
2022-12-15T21:22:01.066Z,97491.69
2022-12-15T21:27:04.209Z,97503.56
2022-12-15T21:32:06.138Z,97501.13
2022-12-15T21:37:25.717Z,97490.06
2022-12-15T21:42:27.813Z,97490.25
2022-12-15T21:47:52.080Z,97492.97
2022-12-15T21:52:54.543Z,97481.91
2022-12-15T21:57:57.471Z,97489.44
2022-12-15T22:02:59.316Z,97481.81
2022-12-15T22:08:13.088Z,97488.72
2022-12-15T22:13:20.660Z,97502.22
2022-12-15T22:18:23.631Z,97486.63
2022-12-15T22:23:25.467Z,97505.09
2022-12-15T22:28:28.708Z,97508.53
2022-12-15T22:33:31.764Z,97511.16
2022-12-15T22:38:34.954Z,97517.69
2022-12-15T22:43:41.637Z,97512.41
2022-12-15T22:48:47.437Z,97516.50
2022-12-15T22:53:49.288Z,97515.56
2022-12-15T22:59:08.569Z,97516.31
2022-12-15T23:04:10.604Z,97525.53
2022-12-15T23:09:12.474Z,97526.44
2022-12-15T23:14:16.842Z,97528.97
2022-12-15T23:19:24.375Z,97523.81
2022-12-15T23:24:26.963Z,97499.16
2022-12-15T23:29:29.536Z,97479.06
2022-12-15T23:34:31.713Z,97472.25
2022-12-15T23:39:34.878Z,97479.34
2022-12-15T23:44:37.749Z,97483.69
2022-12-15T23:49:39.984Z,97483.78
2022-12-15T23:54:43.363Z,97478.81
2022-12-15T23:59:45.088Z,97482.88
